Flugplatz Siegerland

Bericht für EDGS

vom 23.01. um 14:50 UTC

Wind 5 kt aus 70°

Sichtweite 5000 m

feuchter Dunst

aufgelockert bewölkt in 400 ft

bedeckt in 600 ft

Temperatur -7.0°C

Taupunkt -7.0°C

Luftfeuchtigkeit 100%

Luftdruck 996 hPa

EDGS 231450Z 07005KT 040V100 5000 BR SCT004 OVC006 M07/M07 Q0996

Prognose für EDGS

vom 23.01. um 14:00 UTC

Zwischen 15:00 UTC und 00:00 UTC

Wind 5 kt aus 100°

Sichtweite 6000 m

aufgelockert bewölkt in 300 ft

aufgebrochene Bewölkung in 800 ft


Zwischen 15:00 UTC und 20:00 UTC zeitweise

Sichtweite 4000 m

feuchter Dunst

aufgebrochene Bewölkung in 300 ft


Zwischen 16:00 UTC und 00:00 UTC zeitweise mit einer Wahrscheinlichkeit von 30%

aufgelockert bewölkt in 800 ft

TAF EDGS 231400Z 2315/2324 10005KT 6000 SCT003 BKN008 TEMPO 2315/2320 4000 BR BKN003 PROB30 TEMPO 2316/2324 SCT008
Impressum